Flight Track Log - Related Links

Times and Time Zones

All times are in EDT time to prevent confusion due to time zone crossing. See the DAL330 flight status page for this flight to view local times or setup timezone preferences in your user account.

Time Position Orientation Groundspeed Altitude Reporting Facility
EDT Latitude Longitude Course Direction KTS MPH feet Rate Location/Type
Sun 12:14:18 PM 39.0500 -84.6833 243° Southwest 175 201 1,500  Level Cincinnati TRACON
Sun 12:14:48 PM 39.0500 -84.7167 270° West 170 196 2,400 1,533 Climbing Cincinnati TRACON
Sun 12:15:48 PM 39.0500 -84.8000 270° West 271 312 3,800 2,350 Climbing Cincinnati TRACON
Sun 12:16:48 PM 39.0000 -84.8500 218° Southwest 264 304 7,100 2,400 Climbing Cincinnati TRACON
Sun 12:17:00 PM 38.7474 -84.6535 212° Southwest  Level Estimated
Sun 12:18:00 PM 38.6470 -84.6488 211° Southwest  Level Estimated
Sun 12:18:43 PM 38.8411 -84.8931 192° South 304 350 10,800  Level Indianapolis Center
Sun 12:19:00 PM 38.6013 -84.7634 243° Southwest  Level FlightAware Approximate
Sun 12:19:45 PM 38.7392 -84.9200 192° South 364 419 12,900  Level Indianapolis Center
Sun 12:20:46 PM 38.6447 -84.9969 212° Southwest 399 459 15,300 2,195 Climbing Indianapolis Center
Sun 12:21:48 PM 38.5492 -85.0794 214° Southwest 409 471 17,400 1,790 Climbing Indianapolis Center
Sun 12:22:50 PM 38.4533 -85.1639 215° Southwest 415 478 19,000 1,659 Climbing Indianapolis Center
Sun 12:23:51 PM 38.3467 -85.2556 214° Southwest 434 499 20,800 1,610 Climbing Indianapolis Center
Sun 12:24:53 PM 38.2439 -85.3447 214° Southwest 440 506 22,300 1,500 Climbing Indianapolis Center
Sun 12:25:55 PM 38.1383 -85.4344 214° Southwest 449 517 23,900 1,610 Climbing Indianapolis Center
Sun 12:26:56 PM 38.0331 -85.5233 214° Southwest 451 519 25,600 1,561 Climbing Indianapolis Center
Sun 12:27:58 PM 37.9300 -85.6119 214° Southwest 446 513 27,100 1,561 Climbing Indianapolis Center
Sun 12:28:59 PM 37.8272 -85.6983 214° Southwest 442 509 28,800 1,707 Climbing Indianapolis Center
Sun 12:30:01 PM 37.7053 -85.8014 214° Southwest 436 502 30,600 1,065 Climbing Indianapolis Center
Sun 12:31:03 PM 37.6061 -85.8844 214° Southwest 428 493 31,000 195 Climbing Indianapolis Center
Sun 12:32:04 PM 37.5031 -85.9719 214° Southwest 430 495 31,000  Level Indianapolis Center
Sun 12:33:06 PM 37.4014 -86.0561 213° Southwest 433 498 31,000  Level Indianapolis Center
Sun 12:34:07 PM 37.2986 -86.1408 213° Southwest 437 503 31,000  Level Indianapolis Center
Sun 12:35:09 PM 37.1958 -86.2278 214° Southwest 442 509 31,000  Level Indianapolis Center
Sun 12:36:11 PM 37.0914 -86.3164 214° Southwest 438 504 31,000  Level Indianapolis Center
Sun 12:37:12 PM 36.9919 -86.4017 214° Southwest 439 505 31,000  Level Indianapolis Center
Sun 12:38:14 PM 36.8919 -86.4894 215° Southwest 436 502 31,000  Level Indianapolis Center
Sun 12:39:16 PM 36.7908 -86.5772 215° Southwest 438 504 31,000  Level Indianapolis Center
Sun 12:40:17 PM 36.6914 -86.6653 215° Southwest 436 502 31,000  Level Indianapolis Center
Sun 12:41:19 PM 36.5858 -86.7294 206° Southwest 435 501 31,000  Level Indianapolis Center
Sun 12:42:21 PM 36.4508 -86.7419 184° South 413 475 31,000  Level Indianapolis Center
Sun 12:43:22 PM 36.3553 -86.7186 169° South 412 474 31,000  Level Indianapolis Center
Sun 12:44:39 PM 36.2089 -86.6325 155° Southeast 412 474 31,000  Level Memphis Center
Sun 12:45:38 PM 36.1072 -86.5753 156° South 407 468 31,000  Level Memphis Center
Sun 12:46:38 PM 36.0075 -86.5183 155° Southeast 396 456 31,000  Level Memphis Center
Sun 12:48:31 PM 35.8186 -86.4075 155° Southeast 402 463 31,000  Level Atlanta Center
Sun 12:49:31 PM 35.7175 -86.3483 155° Southeast 398 458 31,000  Level Atlanta Center
Sun 12:50:31 PM 35.6250 -86.2717 146° Southeast 403 464 31,000  Level Atlanta Center
Sun 12:51:31 PM 35.5303 -86.1978 148° Southeast 403 464 31,000  Level Atlanta Center
Sun 12:52:31 PM 35.4378 -86.1214 146° Southeast 403 464 31,000 -300 Level Atlanta Center
Sun 12:53:31 PM 35.3472 -86.0478 146° Southeast 408 470 30,400 -1,150 Descending Atlanta Center
Sun 12:54:31 PM 35.2525 -85.9742 148° Southeast 403 464 28,700 -1,650 Descending Atlanta Center
Sun 12:55:31 PM 35.1506 -85.9592 173° South 367 422 27,100 -1,750 Descending Atlanta Center
Sun 12:56:31 PM 35.0486 -85.9389 171° South 373 429 25,200 -1,550 Descending Atlanta Center
Sun 12:57:31 PM 34.9661 -85.8714 146° Southeast 359 413 24,000 -600 Descending Atlanta Center
Sun 12:58:31 PM 34.8836 -85.7961 143° Southeast 359 413 24,000  Level Atlanta Center
Sun 12:59:31 PM 34.8033 -85.7183 141° Southeast 365 420 24,000  Level Atlanta Center
Sun 01:00:31 PM 34.7208 -85.6436 143° Southeast 371 427 24,000  Level Atlanta Center
Sun 01:01:31 PM 34.6425 -85.5689 142° Southeast 371 427 24,000  Level Atlanta Center
Sun 01:02:31 PM 34.5600 -85.4917 142° Southeast 371 427 24,000 -350 Level Atlanta Center
Sun 01:03:31 PM 34.4794 -85.4172 143° Southeast 371 427 23,300 -1,450 Descending Atlanta Center
Sun 01:04:31 PM 34.4008 -85.3428 142° Southeast 366 421 21,100 -2,150 Descending Atlanta Center
Sun 01:05:31 PM 34.3308 -85.2764 142° Southeast 361 415 19,000 -2,050 Descending Atlanta Center
Sun 01:06:31 PM 34.2542 -85.2050 142° Southeast 356 410 17,000 -2,050 Descending Atlanta Center
Sun 01:07:31 PM 34.1839 -85.1386 142° Southeast 341 392 14,900 -1,900 Descending Atlanta Center
Sun 01:08:31 PM 34.1178 -85.0600 135° Southeast 326 375 13,200 -1,000 Descending Atlanta Center
Sun 01:09:31 PM 34.0597 -84.9892 135° Southeast 305 351 12,900 -950 Descending Atlanta Center
Sun 01:10:31 PM 34.0019 -84.9133 133° Southeast 295 339 11,300 -1,450 Descending Atlanta Center
Sun 01:11:31 PM 33.9333 -84.8900 164° South 255 293 10,000 -650 Descending Atlanta Center
Sun 01:12:31 PM 33.8558 -84.9094 192° South 255 293 10,000 -50 Level Atlanta Center
Sun 01:13:31 PM 33.7786 -84.9286 192° South 276 318 9,900 -650 Descending Atlanta Center
Sun 01:14:31 PM 33.7014 -84.9278 179° South 276 318 8,700 -1,000 Descending Atlanta Center
Sun 01:15:31 PM 33.6367 -84.9169 172° South 258 297 7,900 -744 Descending Atlanta Center
Sun 01:16:40 PM 33.6333 -84.8333 93° East 188 216 7,100 -791 Descending Atlanta TRACON
Sun 01:17:40 PM 33.6333 -84.7667 90° East 189 217 6,200 -1,000 Descending Atlanta TRACON
Sun 01:18:40 PM 33.6333 -84.7167 90° East 188 216 5,100 -1,100 Descending Atlanta TRACON

Login

Don't have an account? Register now (free) for customized features, flight alerts, and more!